Northern Power — A8TL6 — position and weather

sailwx.info

Track history (hours):
 
Tides and Currents Weather Stations Pressure Air Temp Water Temp Dewpoint Dewpoint Depression Visibility Wind Speed Wind Dir Waves Ship Positions

Northern Power

Last reported at 2016-Sep-22 00:32 UTC. Time now 2016-Sep-30 05:02 UTC.
Position N 14°41' W 017°26'.
Warning: this ship's position is 8 days out of date.

Length 264 m; draft 11 m.

Type: Cargo ship. MMSI: 636091835.

Date/timePositionNaut miles runAvg speedWind from/ knotsBaromVisibWave heightAir tempDewpointWater temp
2016-Sep-22 00:32N 14°41' W 017°26'0 0.0
2016-Sep-21 23:32N 14°41' W 017°26'0 0.0
2016-Sep-21 22:32N 14°41' W 017°26'0 0.0
2016-Sep-21 19:32N 14°41' W 017°26'0 0.0
2016-Sep-21 16:32N 14°41' W 017°26'0 0.0
2016-Sep-21 09:32N 14°41' W 017°26'0 0.0
2016-Sep-21 08:32N 14°41' W 017°26'0 0.0
2016-Sep-21 05:33N 14°41' W 017°26'0 0.0
2016-Sep-21 03:31N 14°41' W 017°26'0 0.0
2016-Sep-21 02:32N 14°41' W 017°26'  
2016-Sep-17 20:27N 27°10' W 014°19'1714.3
2016-Sep-17 19:15N 27°23' W 014°06'8414.2
2016-Sep-17 13:20N 28°31' W 013°10'1114.1
2016-Sep-17 12:33N 28°40' W 013°03'2914.0
2016-Sep-17 10:27N 29°05' W 012°45'1414.0
2016-Sep-17 09:29N 29°17' W 012°37'1313.8
2016-Sep-17 08:33N 29°27' W 012°28'1813.8
2016-Sep-17 07:13N 29°43' W 012°16'48614.2
2016-Sep-15 21:04N 35°52' W 006°01'1014.2
2016-Sep-15 20:23N 35°56' W 005°50'2111.5
2016-Sep-15 18:33N 36°01' W 005°25'7 0.5
2016-Sep-15 04:28N 36°09' W 005°26'3 0.9
2016-Sep-15 01:14N 36°07' W 005°24'14 5.1
2016-Sep-14 22:33N 36°07' W 005°07'1 1.4
2016-Sep-14 21:34N 36°08' W 005°08'3 0.8
2016-Sep-14 17:33N 36°05' W 005°09'2 0.2
2016-Sep-14 07:31N 36°04' W 005°07'2 2.0
2016-Sep-14 06:33N 36°03' W 005°09'17 5.8
2016-Sep-14 03:33N 35°56' W 005°29'3 0.1
2016-Sep-13 06:19N 35°54' W 005°30'17 9.9
2016-Sep-13 04:33N 36°02' W 005°11'8 4.0
2016-Sep-13 02:33N 36°00' W 005°01'7 2.3
2016-Sep-12 23:33N 36°04' W 005°08'4 1.9
2016-Sep-12 21:33N 36°05' W 005°12'3 1.6
2016-Sep-12 19:33N 36°04' W 005°16'8 3.6
2016-Sep-12 17:16N 36°08' W 005°25'0 0.0
2016-Sep-12 14:22N 36°08' W 005°25'0 0.0
2016-Sep-12 13:10N 36°08' W 005°25'0 0.0
2016-Sep-12 12:28N 36°08' W 005°25'0 0.0
2016-Sep-12 11:10N 36°08' W 005°25'0 0.0
2016-Sep-12 07:22N 36°08' W 005°25'0 0.0
2016-Sep-12 06:16N 36°08' W 005°25'0 0.0
2016-Sep-12 03:28N 36°08' W 005°25'0 0.0
2016-Sep-12 01:28N 36°08' W 005°25'  
Track history (hours):
 
Tides and Currents Weather Stations Pressure Air Temp Water Temp Dewpoint Dewpoint Depression Visibility Wind Speed Wind Dir Waves Ship Positions

Northern Power

Last reported at 2016-Sep-22 00:32 UTC. Time now 2016-Sep-30 05:02 UTC.
Position N 14°41' W 017°26'.
Warning: this ship's position is 8 days out of date.

Length 264 m; draft 11 m.

Type: Cargo ship. MMSI: 636091835.

Date/timePositionNaut miles runAvg speedWind from/ knotsBaromVisibWave heightAir tempDewpointWater temp
2016-Sep-22 00:32N 14°41' W 017°26'0 0.0
2016-Sep-21 23:32N 14°41' W 017°26'0 0.0
2016-Sep-21 22:32N 14°41' W 017°26'0 0.0
2016-Sep-21 19:32N 14°41' W 017°26'0 0.0
2016-Sep-21 16:32N 14°41' W 017°26'0 0.0
2016-Sep-21 09:32N 14°41' W 017°26'0 0.0
2016-Sep-21 08:32N 14°41' W 017°26'0 0.0
2016-Sep-21 05:33N 14°41' W 017°26'0 0.0
2016-Sep-21 03:31N 14°41' W 017°26'0 0.0
2016-Sep-21 02:32N 14°41' W 017°26'  
2016-Sep-17 20:27N 27°10' W 014°19'1714.3
2016-Sep-17 19:15N 27°23' W 014°06'8414.2
2016-Sep-17 13:20N 28°31' W 013°10'1114.1
2016-Sep-17 12:33N 28°40' W 013°03'2914.0
2016-Sep-17 10:27N 29°05' W 012°45'1414.0
2016-Sep-17 09:29N 29°17' W 012°37'1313.8
2016-Sep-17 08:33N 29°27' W 012°28'1813.8
2016-Sep-17 07:13N 29°43' W 012°16'48614.2
2016-Sep-15 21:04N 35°52' W 006°01'1014.2
2016-Sep-15 20:23N 35°56' W 005°50'2111.5
2016-Sep-15 18:33N 36°01' W 005°25'7 0.5
2016-Sep-15 04:28N 36°09' W 005°26'3 0.9
2016-Sep-15 01:14N 36°07' W 005°24'14 5.1
2016-Sep-14 22:33N 36°07' W 005°07'1 1.4
2016-Sep-14 21:34N 36°08' W 005°08'3 0.8
2016-Sep-14 17:33N 36°05' W 005°09'2 0.2
2016-Sep-14 07:31N 36°04' W 005°07'2 2.0
2016-Sep-14 06:33N 36°03' W 005°09'17 5.8
2016-Sep-14 03:33N 35°56' W 005°29'3 0.1
2016-Sep-13 06:19N 35°54' W 005°30'17 9.9
2016-Sep-13 04:33N 36°02' W 005°11'8 4.0
2016-Sep-13 02:33N 36°00' W 005°01'7 2.3
2016-Sep-12 23:33N 36°04' W 005°08'4 1.9
2016-Sep-12 21:33N 36°05' W 005°12'3 1.6
2016-Sep-12 19:33N 36°04' W 005°16'8 3.6
2016-Sep-12 17:16N 36°08' W 005°25'0 0.0
2016-Sep-12 14:22N 36°08' W 005°25'0 0.0
2016-Sep-12 13:10N 36°08' W 005°25'0 0.0
2016-Sep-12 12:28N 36°08' W 005°25'0 0.0
2016-Sep-12 11:10N 36°08' W 005°25'0 0.0
2016-Sep-12 07:22N 36°08' W 005°25'0 0.0
2016-Sep-12 06:16N 36°08' W 005°25'0 0.0
2016-Sep-12 03:28N 36°08' W 005°25'0 0.0
2016-Sep-12 01:28N 36°08' W 005°25'  

Dump ship's entire track history